< < Back
Terminal Aerodrome Forecast


Current Version              Previous Versions:   1  2  3  4  5  6  7  8  9  

Terminal Aerodrome Forecast

527
FTUS44 KMRX 281605 AAC
TAFCHA
TAF AMD
KCHA 281605Z 2816/2912 20012G18KT P6SM VCSH BKN030 BKN045
     FM282000 20013KT P6SM VCTS BKN035CB
     FM290000 22010KT 4SM -SHRA BR OVC035
     FM290400 21005KT P6SM OVC025
     FM291000 20003KT P6SM OVC015=



Latest METAR

294
SAUS80 KWBC 281600 RRB
MTRCHA
METAR KCHA 281553Z 19013KT 10SM BKN027 BKN035 28/20 A2999 RMK AO2 SLP145
-SHRA NW T02780200


USA.gov is the U.S. government's official web portal to all federal, state and local government web resources and services.